Time;durP1;ratioP1;P1;durP2;ratioP2;P2;SDS_P1;SDS_P2;PMS_P1;PMS_P2;Temp;Humidity;BMP_temperature;BMP_pressure;BME280_temperature;BME280_humidity;BME280_pressure;Samples;Min_cycle;Max_cycle;Signal;HPM_P1;HPM_P2
2022/06/17 00:00:26;;;;;;;5.60;3.30;;;;;;;;;;5116787;27;20451;-71
2022/06/17 00:02:56;;;;;;;3.60;2.70;;;;;;;;;;5116319;27;20494;-72
2022/06/17 00:05:23;;;;;;;3.70;3.17;;;;;;;;;;5117923;27;20862;-72
2022/06/17 00:07:51;;;;;;;5.13;3.13;;;;;;;;;;5117001;27;20831;-73
2022/06/17 00:10:21;;;;;;;3.67;2.87;;;;;;;;;;5117583;27;20561;-72
2022/06/17 00:12:48;;;;;;;6.67;3.20;;;;;;;;;;5114506;27;20457;-72
2022/06/17 00:15:16;;;;;;;5.13;3.17;;;;;;;;;;5117922;27;20458;-72
2022/06/17 00:17:47;;;;;;;5.20;3.20;;;;;;;;;;5116444;27;20541;-72
2022/06/17 00:20:16;;;;;;;5.67;3.90;;;;;;;;;;5115848;27;20466;-73
2022/06/17 00:22:44;;;;;;;6.43;3.20;;;;;;;;;;5114984;27;20577;-73
2022/06/17 00:25:16;;;;;;;4.10;3.63;;;;;;;;;;5115509;27;20516;-72
2022/06/17 00:27:44;;;;;;;5.23;3.40;;;;;;;;;;5115430;27;20724;-73
2022/06/17 00:30:15;;;;;;;9.10;3.80;;;;;;;;;;5115405;27;20769;-73
2022/06/17 00:32:42;;;;;;;6.93;3.90;;;;;;;;;;5115691;27;20862;-73
2022/06/17 00:35:10;;;;;;;8.80;4.13;;;;;;;;;;5115524;27;20468;-72
2022/06/17 00:37:37;;;;;;;5.20;4.17;;;;;;;;;;5115586;27;20442;-73
2022/06/17 00:40:11;;;;;;;6.00;3.60;;;;;;;;;;5116962;27;20526;-73
2022/06/17 00:42:38;;;;;;;4.70;3.30;;;;;;;;;;5116758;27;20492;-73
2022/06/17 00:45:12;;;;;;;5.60;4.00;;;;;;;;;;5118069;27;20922;-73
2022/06/17 00:47:44;;;;;;;6.77;3.60;;;;;;;;;;5116027;27;20458;-73
2022/06/17 00:50:15;;;;;;;6.57;3.90;;;;;;;;;;5116275;27;20525;-72
2022/06/17 00:52:44;;;;;;;4.97;3.40;;;;;;;;;;5116297;27;20988;-72
2022/06/17 00:55:15;;;;;;;5.10;3.50;;;;;;;;;;5116462;27;20467;-73
2022/06/17 00:57:43;;;;;;;8.97;4.70;;;;;;;;;;5116725;27;20450;-72
2022/06/17 01:00:16;;;;;;;4.20;3.10;;;;;;;;;;5116448;27;20466;-73
2022/06/17 01:02:44;;;;;;;5.80;3.83;;;;;;;;;;5116855;27;20512;-72
2022/06/17 01:05:12;;;;;;;5.10;3.87;;;;;;;;;;5116490;27;20478;-72
2022/06/17 01:07:42;;;;;;;5.60;3.80;;;;;;;;;;5117025;27;20458;-72
2022/06/17 01:10:11;;;;;;;5.23;3.80;;;;;;;;;;5115382;27;20453;-72
2022/06/17 01:12:41;;;;;;;6.97;3.90;;;;;;;;;;5114826;27;20455;-73
2022/06/17 01:15:09;;;;;;;7.00;3.73;;;;;;;;;;5115406;27;20857;-73
2022/06/17 01:17:38;;;;;;;7.20;3.20;;;;;;;;;;5114858;27;20880;-71
2022/06/17 01:20:10;;;;;;;4.50;3.30;;;;;;;;;;5115256;27;20462;-72
2022/06/17 01:22:44;;;;;;;4.70;3.83;;;;;;;;;;5114943;27;20493;-73
2022/06/17 01:25:13;;;;;;;5.27;4.27;;;;;;;;;;5115166;27;20913;-72
2022/06/17 01:27:41;;;;;;;6.73;3.83;;;;;;;;;;5114375;27;20485;-71
2022/06/17 01:30:10;;;;;;;7.83;3.73;;;;;;;;;;5116545;27;20850;-73
2022/06/17 01:32:40;;;;;;;6.93;4.40;;;;;;;;;;5115011;27;20501;-73
2022/06/17 01:35:08;;;;;;;4.10;3.27;;;;;;;;;;5115002;27;20783;-72
2022/06/17 01:37:35;;;;;;;7.37;4.10;;;;;;;;;;5113733;27;20894;-71
2022/06/17 01:40:04;;;;;;;6.70;3.77;;;;;;;;;;5094384;28;20463;-73
2022/06/17 01:42:31;;;;;;;4.83;3.83;;;;;;;;;;5095994;28;20487;-73
2022/06/17 01:44:58;;;;;;;6.90;4.40;;;;;;;;;;5094853;28;20559;-73
2022/06/17 01:47:27;;;;;;;4.50;3.53;;;;;;;;;;5095752;27;20502;-73
2022/06/17 01:49:56;;;;;;;6.20;3.70;;;;;;;;;;5095331;28;20451;-73
2022/06/17 01:52:27;;;;;;;6.30;4.03;;;;;;;;;;5095644;28;20546;-73
2022/06/17 01:54:56;;;;;;;4.70;3.50;;;;;;;;;;5097091;28;20471;-70
2022/06/17 01:57:26;;;;;;;9.70;4.37;;;;;;;;;;5095989;28;20897;-73
2022/06/17 01:59:55;;;;;;;6.00;3.63;;;;;;;;;;5094635;28;20452;-72
2022/06/17 02:02:22;;;;;;;6.53;3.73;;;;;;;;;;5095473;28;20972;-72
2022/06/17 02:04:57;;;;;;;5.30;3.50;;;;;;;;;;5095037;28;20454;-72
2022/06/17 02:07:26;;;;;;;8.60;4.50;;;;;;;;;;5094887;28;20470;-72
2022/06/17 02:09:53;;;;;;;3.90;3.37;;;;;;;;;;5094609;28;20454;-72
2022/06/17 02:12:21;;;;;;;9.27;5.63;;;;;;;;;;5094904;28;20827;-72
2022/06/17 02:14:50;;;;;;;4.80;3.80;;;;;;;;;;5095826;28;20494;-72
2022/06/17 02:17:17;;;;;;;5.80;2.97;;;;;;;;;;5111547;28;20498;-73
2022/06/17 02:19:45;;;;;;;4.70;3.60;;;;;;;;;;5114683;28;20446;-71
2022/06/17 02:22:14;;;;;;;4.77;3.40;;;;;;;;;;5114087;28;20487;-71
2022/06/17 02:24:41;;;;;;;5.13;3.97;;;;;;;;;;5114698;28;20529;-72
2022/06/17 02:27:11;;;;;;;4.47;3.23;;;;;;;;;;5118910;28;20486;-72
2022/06/17 02:29:39;;;;;;;7.53;3.83;;;;;;;;;;5107261;28;20455;-73
2022/06/17 02:32:10;;;;;;;7.60;3.53;;;;;;;;;;5097136;28;20543;-72
2022/06/17 02:34:40;;;;;;;4.70;3.60;;;;;;;;;;5101866;28;20490;-72
2022/06/17 02:37:10;;;;;;;6.53;4.30;;;;;;;;;;5118096;27;20527;-72
2022/06/17 02:39:39;;;;;;;6.40;3.90;;;;;;;;;;5117888;27;20583;-72
2022/06/17 02:42:07;;;;;;;4.50;3.67;;;;;;;;;;5118085;27;20577;-72
2022/06/17 02:44:35;;;;;;;5.40;2.77;;;;;;;;;;5116889;27;20443;-72
2022/06/17 02:47:02;;;;;;;4.40;3.60;;;;;;;;;;5117134;27;20466;-72
2022/06/17 02:49:32;;;;;;;6.30;4.07;;;;;;;;;;5117310;27;20461;-72
2022/06/17 02:52:00;;;;;;;3.50;3.03;;;;;;;;;;5118271;27;20451;-72
2022/06/17 02:54:30;;;;;;;6.20;5.50;;;;;;;;;;5118388;27;20509;-73
2022/06/17 02:57:01;;;;;;;6.10;3.70;;;;;;;;;;5116292;27;20516;-73
2022/06/17 02:59:33;;;;;;;5.10;3.90;;;;;;;;;;5118020;27;20474;-73
2022/06/17 03:02:03;;;;;;;4.67;3.43;;;;;;;;;;5118232;27;20851;-72
2022/06/17 03:04:33;;;;;;;4.70;3.23;;;;;;;;;;5118661;27;20451;-72
2022/06/17 03:07:00;;;;;;;6.57;4.03;;;;;;;;;;5109756;28;20444;-72
2022/06/17 03:09:29;;;;;;;13.73;8.90;;;;;;;;;;5108584;27;20459;-72
2022/06/17 03:11:58;;;;;;;7.83;4.40;;;;;;;;;;5119152;27;20447;-73
2022/06/17 03:14:27;;;;;;;4.50;3.77;;;;;;;;;;5117814;27;20461;-73
2022/06/17 03:16:56;;;;;;;5.90;4.17;;;;;;;;;;5117672;27;20929;-72
2022/06/17 03:19:24;;;;;;;6.43;4.03;;;;;;;;;;5116928;27;20455;-72
2022/06/17 03:21:56;;;;;;;8.23;3.77;;;;;;;;;;5114215;27;20868;-72
2022/06/17 03:24:25;;;;;;;5.40;3.53;;;;;;;;;;5097976;28;20612;-72
2022/06/17 03:26:56;;;;;;;6.00;3.40;;;;;;;;;;5096472;28;20470;-72
2022/06/17 03:29:24;;;;;;;6.90;3.80;;;;;;;;;;5098590;28;20448;-73
2022/06/17 03:31:53;;;;;;;5.40;3.93;;;;;;;;;;5096891;28;20495;-72
2022/06/17 03:34:22;;;;;;;8.43;4.50;;;;;;;;;;5096856;28;20536;-72
2022/06/17 03:36:52;;;;;;;6.63;4.33;;;;;;;;;;5096544;28;20448;-72
2022/06/17 03:39:21;;;;;;;5.13;3.90;;;;;;;;;;5096212;28;20878;-72
2022/06/17 03:41:50;;;;;;;5.30;4.57;;;;;;;;;;5097326;28;20486;-72
2022/06/17 03:44:18;;;;;;;5.17;3.60;;;;;;;;;;5096096;28;20537;-71
2022/06/17 03:46:48;;;;;;;6.20;4.43;;;;;;;;;;5094791;28;20458;-71
2022/06/17 03:49:18;;;;;;;5.90;4.03;;;;;;;;;;5095125;28;20456;-73
2022/06/17 03:51:45;;;;;;;8.77;4.77;;;;;;;;;;5094743;28;20451;-72
2022/06/17 03:54:14;;;;;;;6.20;3.83;;;;;;;;;;5112042;27;20868;-73
2022/06/17 03:56:43;;;;;;;6.90;4.30;;;;;;;;;;5116904;27;20441;-73
2022/06/17 03:59:16;;;;;;;4.93;3.47;;;;;;;;;;5117006;27;20458;-73
2022/06/17 04:01:45;;;;;;;5.37;3.87;;;;;;;;;;5108659;27;20704;-73
2022/06/17 04:04:15;;;;;;;8.07;4.70;;;;;;;;;;5096359;28;20498;-73
2022/06/17 04:06:47;;;;;;;6.43;4.70;;;;;;;;;;5096089;28;20534;-73
2022/06/17 04:09:16;;;;;;;6.63;4.40;;;;;;;;;;5095779;28;20524;-72
2022/06/17 04:11:46;;;;;;;6.73;4.40;;;;;;;;;;5103488;28;20472;-73
2022/06/17 04:14:17;;;;;;;5.67;4.13;;;;;;;;;;5115434;27;20466;-72
2022/06/17 04:16:45;;;;;;;5.77;4.30;;;;;;;;;;5116830;27;20442;-72
2022/06/17 04:19:14;;;;;;;6.73;4.87;;;;;;;;;;5115694;27;20612;-73
2022/06/17 04:21:42;;;;;;;6.13;4.30;;;;;;;;;;5117328;27;20462;-73
2022/06/17 04:24:12;;;;;;;6.03;4.50;;;;;;;;;;5115376;27;20486;-73
2022/06/17 04:26:41;;;;;;;5.37;4.23;;;;;;;;;;5107331;28;20447;-73
2022/06/17 04:29:13;;;;;;;14.00;10.10;;;;;;;;;;5096183;28;20452;-73
2022/06/17 04:31:40;;;;;;;6.03;4.00;;;;;;;;;;5094823;28;20478;-73
2022/06/17 04:34:10;;;;;;;5.60;4.40;;;;;;;;;;5095683;28;20463;-73
2022/06/17 04:36:42;;;;;;;6.53;4.10;;;;;;;;;;5096265;28;20451;-73
2022/06/17 04:39:20;;;;;;;5.40;4.03;;;;;;;;;;5114767;27;20469;-73
2022/06/17 04:41:49;;;;;;;16.93;5.50;;;;;;;;;;5115495;28;20458;-73
2022/06/17 04:44:16;;;;;;;4.40;3.73;;;;;;;;;;5115409;28;20497;-73
2022/06/17 04:46:46;;;;;;;5.70;4.00;;;;;;;;;;5115355;27;20451;-73
2022/06/17 04:49:17;;;;;;;4.60;4.10;;;;;;;;;;5115889;27;20545;-73
2022/06/17 04:51:44;;;;;;;12.53;5.30;;;;;;;;;;5115680;27;21004;-72
2022/06/17 04:54:12;;;;;;;5.77;4.17;;;;;;;;;;5116222;27;20489;-73
2022/06/17 04:56:41;;;;;;;7.07;3.93;;;;;;;;;;5115563;27;20451;-73
2022/06/17 04:59:19;;;;;;;5.90;3.43;;;;;;;;;;5113815;27;20477;-72
2022/06/17 05:01:48;;;;;;;5.00;3.50;;;;;;;;;;5114529;27;20828;-73
2022/06/17 05:04:15;;;;;;;6.03;3.47;;;;;;;;;;5111395;27;20561;-73
2022/06/17 05:06:45;;;;;;;4.90;3.60;;;;;;;;;;5094723;28;20732;-72
2022/06/17 05:09:16;;;;;;;4.40;2.90;;;;;;;;;;5093850;28;20830;-72
2022/06/17 05:11:45;;;;;;;6.03;3.30;;;;;;;;;;5093939;28;20456;-72
2022/06/17 05:14:16;;;;;;;8.30;3.40;;;;;;;;;;5092884;28;20466;-72
2022/06/17 05:16:44;;;;;;;4.87;3.20;;;;;;;;;;5093352;28;20447;-72
2022/06/17 05:19:11;;;;;;;8.00;2.90;;;;;;;;;;5092733;28;20558;-73
2022/06/17 05:21:38;;;;;;;3.63;3.03;;;;;;;;;;5092053;28;20475;-72
2022/06/17 05:24:06;;;;;;;3.17;2.40;;;;;;;;;;5092503;28;20487;-71
2022/06/17 05:26:34;;;;;;;5.20;3.20;;;;;;;;;;5106038;27;20437;-72
2022/06/17 05:29:01;;;;;;;5.97;3.07;;;;;;;;;;5112753;27;20549;-72
2022/06/17 05:31:29;;;;;;;7.57;3.00;;;;;;;;;;5112335;27;20545;-72
2022/06/17 05:33:59;;;;;;;5.03;2.70;;;;;;;;;;5110818;27;20461;-72
2022/06/17 05:36:28;;;;;;;4.33;2.77;;;;;;;;;;5110882;27;20470;-72
2022/06/17 05:39:04;;;;;;;4.00;2.63;;;;;;;;;;5111081;27;20446;-73
2022/06/17 05:41:31;;;;;;;4.73;2.77;;;;;;;;;;5108796;27;20486;-72
2022/06/17 05:43:58;;;;;;;8.23;3.00;;;;;;;;;;5108844;27;20497;-72
2022/06/17 05:46:25;;;;;;;3.77;2.70;;;;;;;;;;5109328;27;20443;-72
2022/06/17 05:48:52;;;;;;;7.33;3.20;;;;;;;;;;5110258;27;20542;-71
2022/06/17 05:51:20;;;;;;;3.77;2.20;;;;;;;;;;5109526;27;20435;-72
2022/06/17 05:53:50;;;;;;;5.50;2.83;;;;;;;;;;5103939;27;20492;-71
2022/06/17 05:56:18;;;;;;;5.43;2.87;;;;;;;;;;5110208;27;20700;-72
2022/06/17 05:58:47;;;;;;;5.33;2.43;;;;;;;;;;5107700;28;20858;-72
2022/06/17 06:01:14;;;;;;;4.17;3.20;;;;;;;;;;5095270;28;20448;-72
2022/06/17 06:03:41;;;;;;;4.13;2.77;;;;;;;;;;5095919;28;20506;-72
2022/06/17 06:06:08;;;;;;;4.67;2.90;;;;;;;;;;5103752;27;20470;-72
2022/06/17 06:08:37;;;;;;;5.80;3.07;;;;;;;;;;5110928;27;20542;-72
2022/06/17 06:11:04;;;;;;;7.47;2.60;;;;;;;;;;5114561;27;20473;-71
2022/06/17 06:13:32;;;;;;;12.97;4.13;;;;;;;;;;5112466;27;20446;-72
2022/06/17 06:16:00;;;;;;;9.83;3.50;;;;;;;;;;5116970;27;20981;-72
2022/06/17 06:18:28;;;;;;;7.07;3.20;;;;;;;;;;5115510;27;20994;-72
2022/06/17 06:20:56;;;;;;;8.43;3.27;;;;;;;;;;5115374;27;20485;-71
2022/06/17 06:23:23;;;;;;;5.20;3.30;;;;;;;;;;5115263;27;20502;-72
2022/06/17 06:25:51;;;;;;;5.83;3.00;;;;;;;;;;5116629;27;20450;-72
2022/06/17 06:28:19;;;;;;;8.87;2.80;;;;;;;;;;5115554;27;20541;-72
2022/06/17 06:30:51;;;;;;;5.90;3.00;;;;;;;;;;5116635;27;20485;-71
2022/06/17 06:33:21;;;;;;;9.40;2.87;;;;;;;;;;5098447;28;20456;-72
2022/06/17 06:35:48;;;;;;;4.50;3.47;;;;;;;;;;5094969;28;20455;-72
2022/06/17 06:38:16;;;;;;;3.63;2.70;;;;;;;;;;5095477;28;20451;-72
2022/06/17 06:40:43;;;;;;;6.90;3.27;;;;;;;;;;5096892;28;20516;-72
2022/06/17 06:43:15;;;;;;;4.90;2.93;;;;;;;;;;5095540;28;20505;-72
2022/06/17 06:45:43;;;;;;;6.20;2.70;;;;;;;;;;5095547;28;20459;-72
2022/06/17 06:48:11;;;;;;;6.93;3.07;;;;;;;;;;5095608;28;20811;-73
2022/06/17 06:50:39;;;;;;;5.97;3.17;;;;;;;;;;5094764;28;20460;-72
2022/06/17 06:53:16;;;;;;;10.87;3.00;;;;;;;;;;5096102;28;20459;-72
2022/06/17 06:55:44;;;;;;;5.60;2.93;;;;;;;;;;5096634;28;21065;-72
2022/06/17 06:58:12;;;;;;;5.40;2.70;;;;;;;;;;5116550;27;20467;-71
2022/06/17 07:00:46;;;;;;;5.20;3.00;;;;;;;;;;5115334;27;20876;-72
2022/06/17 07:03:14;;;;;;;6.80;3.10;;;;;;;;;;5114109;27;20675;-72
2022/06/17 07:05:42;;;;;;;6.50;3.53;;;;;;;;;;5113012;27;20439;-72
2022/06/17 07:08:11;;;;;;;4.30;2.60;;;;;;;;;;5108637;27;20465;-72
2022/06/17 07:10:38;;;;;;;4.17;2.83;;;;;;;;;;5115015;27;20541;-73
2022/06/17 07:13:10;;;;;;;4.73;2.80;;;;;;;;;;5115513;27;20796;-71
2022/06/17 07:15:38;;;;;;;8.33;3.27;;;;;;;;;;5107057;27;20492;-72
2022/06/17 07:18:09;;;;;;;5.60;3.20;;;;;;;;;;5106046;27;20744;-72
2022/06/17 07:20:42;;;;;;;5.37;3.53;;;;;;;;;;5113225;27;20676;-74
2022/06/17 07:23:10;;;;;;;5.60;2.63;;;;;;;;;;5100159;28;20478;-74
2022/06/17 07:25:40;;;;;;;4.20;2.70;;;;;;;;;;5106291;27;20482;-74
2022/06/17 07:28:14;;;;;;;4.03;2.90;;;;;;;;;;5115301;27;20439;-73
2022/06/17 07:30:41;;;;;;;12.13;8.57;;;;;;;;;;5115450;27;20451;-73
2022/06/17 07:33:10;;;;;;;5.10;2.80;;;;;;;;;;5114190;27;20458;-74
2022/06/17 07:35:37;;;;;;;6.90;2.80;;;;;;;;;;5113805;27;20569;-74
2022/06/17 07:40:49;;;;;;;5.00;2.47;;;;;;;;;;5097242;28;20473;-73
2022/06/17 07:43:17;;;;;;;7.00;3.60;;;;;;;;;;5104884;28;20482;-74
2022/06/17 07:45:45;;;;;;;4.30;2.67;;;;;;;;;;5098488;27;20854;-73
2022/06/17 07:48:21;;;;;;;3.70;2.37;;;;;;;;;;5110132;27;20541;-72
2022/06/17 07:50:48;;;;;;;3.80;2.20;;;;;;;;;;5093560;28;20474;-74
2022/06/17 07:53:16;;;;;;;5.97;2.30;;;;;;;;;;5109622;27;20531;-72
2022/06/17 07:55:44;;;;;;;4.70;3.33;;;;;;;;;;5114586;27;20524;-74
2022/06/17 07:58:13;;;;;;;5.17;2.33;;;;;;;;;;5113665;28;20500;-74
2022/06/17 08:00:46;;;;;;;6.13;2.90;;;;;;;;;;5113599;28;20459;-73
2022/06/17 08:03:15;;;;;;;6.97;2.30;;;;;;;;;;5095536;28;20509;-73
2022/06/17 08:05:44;;;;;;;3.43;2.03;;;;;;;;;;5097747;28;20855;-73
2022/06/17 08:08:11;;;;;;;6.10;1.80;;;;;;;;;;5100700;28;20447;-73
2022/06/17 08:10:42;;;;;;;3.77;2.50;;;;;;;;;;5094306;28;20474;-72
2022/06/17 08:13:10;;;;;;;3.93;1.87;;;;;;;;;;5095773;27;20773;-73
2022/06/17 08:15:37;;;;;;;4.43;1.90;;;;;;;;;;5109549;27;20459;-72
2022/06/17 08:18:09;;;;;;;3.50;2.03;;;;;;;;;;5105938;27;20796;-73
2022/06/17 08:20:37;;;;;;;4.20;2.33;;;;;;;;;;5101671;28;20477;-73
2022/06/17 08:23:05;;;;;;;3.60;2.67;;;;;;;;;;5103217;28;20482;-73
2022/06/17 08:25:35;;;;;;;3.10;2.03;;;;;;;;;;5117314;27;20578;-74
2022/06/17 08:28:09;;;;;;;4.20;2.20;;;;;;;;;;5108948;27;20474;-73
2022/06/17 08:30:37;;;;;;;3.67;2.20;;;;;;;;;;5103253;28;20474;-74
2022/06/17 08:33:08;;;;;;;3.90;2.20;;;;;;;;;;5101178;28;20894;-74
2022/06/17 08:35:39;;;;;;;3.60;2.13;;;;;;;;;;5113412;27;20462;-73
2022/06/17 08:38:15;;;;;;;2.40;1.70;;;;;;;;;;5097587;27;20468;-74
2022/06/17 08:40:54;;;;;;;4.60;1.70;;;;;;;;;;5101592;28;20554;-74
2022/06/17 08:43:37;;;;;;;6.53;1.93;;;;;;;;;;5096198;28;20507;-74
2022/06/17 08:46:13;;;;;;;4.23;1.80;;;;;;;;;;5072659;27;20849;-73
2022/06/17 08:48:47;;;;;;;3.90;2.07;;;;;;;;;;5110632;27;20481;-74
2022/06/17 08:51:23;;;;;;;3.60;1.80;;;;;;;;;;5110871;27;20480;-74
2022/06/17 08:53:59;;;;;;;4.47;1.53;;;;;;;;;;5102392;27;20452;-73
2022/06/17 08:56:31;;;;;;;2.80;1.80;;;;;;;;;;5109011;27;20730;-74
2022/06/17 08:59:03;;;;;;;3.90;2.10;;;;;;;;;;5114265;27;20443;-74
2022/06/17 09:01:37;;;;;;;3.13;1.60;;;;;;;;;;5131181;27;21075;-74
2022/06/17 09:04:16;;;;;;;2.83;1.77;;;;;;;;;;5120406;27;20477;-74
2022/06/17 09:06:53;;;;;;;3.43;2.07;;;;;;;;;;5113172;27;20453;-74
2022/06/17 09:09:39;;;;;;;4.37;2.07;;;;;;;;;;5101791;28;20872;-72
2022/06/17 09:12:12;;;;;;;3.20;1.90;;;;;;;;;;5098603;28;20798;-74
2022/06/17 09:14:43;;;;;;;3.27;1.90;;;;;;;;;;5092934;27;20864;-73
2022/06/17 09:17:14;;;;;;;3.40;1.77;;;;;;;;;;5101055;28;20471;-74
2022/06/17 09:19:45;;;;;;;3.77;1.87;;;;;;;;;;5110861;27;20458;-75
2022/06/17 09:22:17;;;;;;;5.80;2.00;;;;;;;;;;5098212;27;20498;-74
2022/06/17 09:24:45;;;;;;;4.00;1.57;;;;;;;;;;5092204;28;20456;-74
2022/06/17 09:27:17;;;;;;;3.40;2.00;;;;;;;;;;5091587;27;20483;-74
2022/06/17 09:29:47;;;;;;;5.83;2.97;;;;;;;;;;5110188;27;20489;-73
2022/06/17 09:32:21;;;;;;;4.07;2.07;;;;;;;;;;5111129;27;20853;-74
2022/06/17 09:34:54;;;;;;;3.23;1.83;;;;;;;;;;5114113;27;21084;-73
2022/06/17 09:37:30;;;;;;;2.70;1.73;;;;;;;;;;5102323;28;20455;-74
2022/06/17 09:40:02;;;;;;;4.87;1.77;;;;;;;;;;5106822;27;20617;-74
2022/06/17 09:42:30;;;;;;;4.03;2.03;;;;;;;;;;5108744;28;20455;-74
2022/06/17 09:44:59;;;;;;;2.77;2.20;;;;;;;;;;5100834;27;20456;-73
2022/06/17 09:47:27;;;;;;;3.30;2.00;;;;;;;;;;5108746;27;20958;-74
2022/06/17 09:50:02;;;;;;;7.80;2.00;;;;;;;;;;5113735;27;20541;-73
2022/06/17 09:52:41;;;;;;;7.50;2.63;;;;;;;;;;5109007;27;20481;-74
2022/06/17 09:55:18;;;;;;;3.00;1.83;;;;;;;;;;5109213;27;20454;-74
2022/06/17 09:57:51;;;;;;;3.73;1.80;;;;;;;;;;5096611;28;20454;-75
2022/06/17 10:00:22;;;;;;;4.10;1.60;;;;;;;;;;5113969;27;20541;-74
2022/06/17 10:02:51;;;;;;;2.63;1.80;;;;;;;;;;5115702;27;20890;-73
2022/06/17 10:05:37;;;;;;;3.80;1.80;;;;;;;;;;5106920;27;20470;-74
2022/06/17 10:08:10;;;;;;;3.40;2.13;;;;;;;;;;5094645;28;20493;-74
2022/06/17 10:10:42;;;;;;;3.43;1.90;;;;;;;;;;5115365;27;20453;-75
2022/06/17 10:13:28;;;;;;;6.90;2.43;;;;;;;;;;5114969;27;20474;-74
2022/06/17 10:18:53;;;;;;;5.07;2.40;;;;;;;;;;5114651;27;21058;-75
2022/06/17 10:21:28;;;;;;;5.60;2.43;;;;;;;;;;5114605;27;20430;-74
2022/06/17 10:24:00;;;;;;;5.43;2.80;;;;;;;;;;5115976;27;21110;-75
2022/06/17 10:26:33;;;;;;;5.37;2.30;;;;;;;;;;5114078;27;20449;-75
2022/06/17 10:29:06;;;;;;;4.60;2.50;;;;;;;;;;5115341;27;20461;-74
2022/06/17 10:31:47;;;;;;;4.70;2.77;;;;;;;;;;5115422;27;20454;-74
2022/06/17 10:34:19;;;;;;;3.60;2.30;;;;;;;;;;5113875;27;20465;-75
2022/06/17 10:36:56;;;;;;;6.17;2.50;;;;;;;;;;5115427;27;20500;-73
2022/06/17 10:39:26;;;;;;;4.47;3.10;;;;;;;;;;5098820;28;20479;-74
2022/06/17 10:41:57;;;;;;;5.43;2.20;;;;;;;;;;5096803;28;20483;-75
2022/06/17 10:44:26;;;;;;;5.23;2.30;;;;;;;;;;5106778;28;20483;-74
2022/06/17 10:47:04;;;;;;;3.57;2.73;;;;;;;;;;5104359;27;20466;-74
2022/06/17 10:49:36;;;;;;;3.10;2.07;;;;;;;;;;5104767;28;20512;-73
2022/06/17 10:52:08;;;;;;;2.93;2.40;;;;;;;;;;5075650;28;20477;-75
2022/06/17 10:54:38;;;;;;;6.47;3.07;;;;;;;;;;5101333;28;20547;-74
2022/06/17 10:57:18;;;;;;;;;;;;;;;;;;;;;
2022/06/17 10:59:48;;;;;;;4.70;2.33;;;;;;;;;;5103917;27;20457;-72
2022/06/17 11:02:36;;;;;;;4.30;2.27;;;;;;;;;;5112042;27;20462;-74
2022/06/17 11:05:05;;;;;;;7.73;2.67;;;;;;;;;;5110492;28;20488;-73
2022/06/17 11:07:50;;;;;;;6.80;3.87;;;;;;;;;;5105740;27;20562;-73
2022/06/17 11:10:26;;;;;;;4.60;2.70;;;;;;;;;;5099723;27;20463;-72
2022/06/17 11:13:09;;;;;;;4.83;2.33;;;;;;;;;;5099672;27;20470;-73
2022/06/17 11:15:39;;;;;;;3.50;2.57;;;;;;;;;;5103228;28;20463;-73
2022/06/17 11:18:08;;;;;;;3.20;2.30;;;;;;;;;;5093029;28;20475;-73
2022/06/17 11:20:39;;;;;;;4.13;3.10;;;;;;;;;;5092887;28;20504;-72
2022/06/17 11:23:09;;;;;;;4.27;2.57;;;;;;;;;;5092059;28;20483;-72
2022/06/17 11:25:38;;;;;;;4.90;2.50;;;;;;;;;;5107200;27;20566;-73
2022/06/17 11:28:12;;;;;;;5.77;2.70;;;;;;;;;;5112641;27;21018;-73
2022/06/17 11:30:50;;;;;;;6.83;2.70;;;;;;;;;;5112619;27;20477;-72
2022/06/17 11:33:21;;;;;;;6.07;2.60;;;;;;;;;;5113925;27;20481;-74
2022/06/17 11:35:58;;;;;;;6.10;2.70;;;;;;;;;;5109472;27;20908;-72
2022/06/17 11:38:28;;;;;;;4.00;2.10;;;;;;;;;;5113123;27;20489;-73
2022/06/17 11:41:00;;;;;;;8.63;6.57;;;;;;;;;;5114235;27;20494;-73
2022/06/17 11:43:32;;;;;;;5.27;2.80;;;;;;;;;;5112469;27;20482;-72
2022/06/17 11:46:09;;;;;;;4.00;2.73;;;;;;;;;;5113964;27;21095;-73
2022/06/17 11:48:42;;;;;;;5.00;2.70;;;;;;;;;;5095942;28;20513;-74
2022/06/17 11:51:12;;;;;;;5.20;3.40;;;;;;;;;;5092089;28;20452;-74
2022/06/17 11:53:44;;;;;;;6.20;2.57;;;;;;;;;;5092292;28;20937;-73
2022/06/17 11:56:13;;;;;;;3.70;2.47;;;;;;;;;;5091911;28;20732;-74
2022/06/17 11:58:55;;;;;;;3.90;2.73;;;;;;;;;;5092465;28;20510;-74
2022/06/17 12:01:29;;;;;;;4.27;2.63;;;;;;;;;;5105380;27;21088;-73
2022/06/17 12:03:59;;;;;;;5.80;2.57;;;;;;;;;;5098685;28;20492;-73
2022/06/17 12:06:33;;;;;;;6.63;2.93;;;;;;;;;;5102795;27;20462;-74
2022/06/17 12:09:31;;;;;;;10.13;2.70;;;;;;;;;;5089100;28;20463;-75
2022/06/17 12:12:00;;;;;;;5.87;3.30;;;;;;;;;;5093895;28;20755;-75
2022/06/17 12:14:38;;;;;;;7.47;2.90;;;;;;;;;;5095425;28;20882;-74
2022/06/17 12:17:13;;;;;;;8.03;2.87;;;;;;;;;;5093478;28;20494;-75
2022/06/17 12:19:44;;;;;;;4.13;2.90;;;;;;;;;;5091887;28;20729;-74
2022/06/17 12:22:14;;;;;;;4.80;2.60;;;;;;;;;;5101954;28;20827;-74
2022/06/17 12:24:46;;;;;;;6.87;3.13;;;;;;;;;;5113867;27;20867;-74
2022/06/17 12:27:26;;;;;;;4.80;2.80;;;;;;;;;;5112873;27;20518;-74
2022/06/17 12:29:56;;;;;;;9.13;2.60;;;;;;;;;;5111080;27;20446;-74
2022/06/17 12:32:28;;;;;;;5.70;2.67;;;;;;;;;;5111158;27;20866;-72
2022/06/17 12:35:03;;;;;;;4.67;2.63;;;;;;;;;;5093417;28;20535;-74
2022/06/17 12:37:38;;;;;;;3.53;2.40;;;;;;;;;;5109201;27;20438;-72
2022/06/17 12:40:11;;;;;;;4.03;2.80;;;;;;;;;;5108534;27;20458;-74
2022/06/17 12:42:56;;;;;;;6.07;5.00;;;;;;;;;;5094838;28;20525;-75
2022/06/17 12:45:30;;;;;;;5.03;3.97;;;;;;;;;;5092803;28;20477;-72
2022/06/17 12:48:09;;;;;;;4.43;3.50;;;;;;;;;;5091980;27;20475;-73
2022/06/17 12:53:48;;;;;;;5.03;2.43;;;;;;;;;;5107436;27;20449;-73
2022/06/17 12:56:26;;;;;;;3.93;2.50;;;;;;;;;;5112878;27;20458;-73
2022/06/17 12:59:08;;;;;;;3.67;2.70;;;;;;;;;;5109222;27;20504;-73
2022/06/17 13:01:39;;;;;;;4.30;2.80;;;;;;;;;;5088423;28;20495;-73
2022/06/17 13:04:20;;;;;;;4.70;2.80;;;;;;;;;;5092482;28;20491;-72
2022/06/17 13:06:51;;;;;;;5.07;3.67;;;;;;;;;;5106928;28;20754;-74
2022/06/17 13:09:24;;;;;;;4.63;2.93;;;;;;;;;;5094624;27;20475;-74
2022/06/17 13:12:07;;;;;;;3.90;2.53;;;;;;;;;;5109329;27;20580;-74
2022/06/17 13:14:42;;;;;;;5.90;2.63;;;;;;;;;;5111139;27;20455;-75
2022/06/17 13:17:15;;;;;;;4.60;2.67;;;;;;;;;;5100027;28;20460;-74
2022/06/17 13:19:47;;;;;;;8.50;2.70;;;;;;;;;;5109663;28;20477;-72
2022/06/17 13:22:18;;;;;;;5.73;2.60;;;;;;;;;;5121610;27;20969;-72
2022/06/17 13:24:50;;;;;;;6.50;2.80;;;;;;;;;;5108824;27;20541;-74
2022/06/17 13:27:22;;;;;;;6.30;2.40;;;;;;;;;;5096434;27;20553;-74
2022/06/17 13:29:53;;;;;;;5.80;3.13;;;;;;;;;;5113409;27;20770;-72
2022/06/17 13:32:22;;;;;;;6.60;3.90;;;;;;;;;;5112793;27;20458;-74
2022/06/17 13:34:54;;;;;;;5.67;2.93;;;;;;;;;;5111042;27;20458;-74
2022/06/17 13:37:23;;;;;;;5.47;3.10;;;;;;;;;;5112453;27;20449;-74
2022/06/17 13:39:52;;;;;;;4.33;2.77;;;;;;;;;;5101634;27;20496;-73
2022/06/17 13:42:20;;;;;;;3.90;2.83;;;;;;;;;;5112650;27;20550;-75
2022/06/17 13:44:52;;;;;;;5.80;2.60;;;;;;;;;;5109405;27;20514;-72
2022/06/17 13:47:23;;;;;;;4.57;2.77;;;;;;;;;;5107599;27;20455;-74
2022/06/17 13:49:58;;;;;;;5.10;3.40;;;;;;;;;;5111407;27;20458;-73
2022/06/17 13:52:33;;;;;;;4.17;2.23;;;;;;;;;;5111594;27;20453;-75
2022/06/17 13:55:07;;;;;;;6.83;2.70;;;;;;;;;;5113378;27;20871;-74
2022/06/17 13:57:39;;;;;;;8.10;5.20;;;;;;;;;;5112457;27;20476;-74
2022/06/17 14:00:26;;;;;;;3.63;2.67;;;;;;;;;;5101296;28;20520;-74
2022/06/17 14:02:55;;;;;;;3.73;2.50;;;;;;;;;;5094328;28;20513;-74
2022/06/17 14:05:30;;;;;;;4.80;2.60;;;;;;;;;;5099458;27;20494;-74
2022/06/17 14:08:03;;;;;;;7.77;4.00;;;;;;;;;;5092334;28;20903;-74
2022/06/17 14:10:34;;;;;;;4.90;2.67;;;;;;;;;;5105390;28;20467;-75
2022/06/17 14:13:17;;;;;;;6.80;3.10;;;;;;;;;;5100059;27;20455;-75
2022/06/17 14:15:47;;;;;;;3.77;2.50;;;;;;;;;;5094425;27;20553;-73
2022/06/17 14:18:23;;;;;;;6.97;2.50;;;;;;;;;;5102118;27;20447;-73
2022/06/17 14:21:09;;;;;;;8.83;7.30;;;;;;;;;;5097580;28;20467;-73
2022/06/17 14:23:55;;;;;;;3.57;2.47;;;;;;;;;;5099776;27;20490;-74
2022/06/17 14:26:41;;;;;;;5.27;2.50;;;;;;;;;;5107548;27;20481;-74
2022/06/17 14:29:13;;;;;;;6.33;3.47;;;;;;;;;;5100025;27;20865;-74
2022/06/17 14:31:42;;;;;;;4.40;2.47;;;;;;;;;;5111643;27;20814;-73
2022/06/17 14:34:14;;;;;;;4.13;2.80;;;;;;;;;;5102149;28;21055;-73
2022/06/17 14:36:44;;;;;;;5.07;2.47;;;;;;;;;;5115486;27;20451;-74
2022/06/17 14:39:33;;;;;;;4.30;3.30;;;;;;;;;;5107945;27;20455;-71
2022/06/17 14:42:14;;;;;;;4.13;2.80;;;;;;;;;;5097956;27;20463;-71
2022/06/17 14:44:42;;;;;;;3.90;2.70;;;;;;;;;;5096426;27;21044;-73
2022/06/17 14:47:35;;;;;;;5.33;3.37;;;;;;;;;;5094822;28;20455;-74
2022/06/17 14:50:17;;;;;;;7.97;2.30;;;;;;;;;;5109173;27;21109;-74
2022/06/17 14:52:47;;;;;;;5.10;2.60;;;;;;;;;;5093169;28;20955;-74
2022/06/17 14:55:23;;;;;;;4.83;2.87;;;;;;;;;;5102099;28;20489;-74
2022/06/17 14:58:09;;;;;;;3.10;2.13;;;;;;;;;;5105125;27;21897;-74
2022/06/17 15:00:47;;;;;;;6.73;2.50;;;;;;;;;;5107202;27;20847;-74
2022/06/17 15:03:23;;;;;;;3.90;2.70;;;;;;;;;;5101315;27;20553;-75
2022/06/17 15:05:56;;;;;;;5.20;2.93;;;;;;;;;;5103920;27;20507;-73
2022/06/17 15:08:28;;;;;;;5.50;2.67;;;;;;;;;;5117978;27;20532;-73
2022/06/17 15:11:01;;;;;;;6.47;2.73;;;;;;;;;;5101991;27;21091;-74
2022/06/17 15:16:22;;;;;;;3.27;2.17;;;;;;;;;;5102755;27;20492;-73
2022/06/17 15:18:50;;;;;;;3.60;2.27;;;;;;;;;;5113716;27;20485;-73